Aérodrome :
LOGIN :

S'inscrire | Disclaimer

   EN    FR    IT 

 










Légende :    VFR   VFR Marginal   IFR   IFR Intensif   IFR Très Intensif
Visi : 
Plafond : 
>= 8 km
>= 3000ft
5 à 8 km
1000 à 3000 ft
1500m à 5 km
500 à 1000 ft
800 à 1500m
200 à 500 ft
< 800m
< 200 ft
Symboles :   Orages  Brouillard  Fortes neiges  Fortes précipitations  Vent > 20 kt
SIGMETs :   Divers  Orages  Givrage  Turbulence  Onde Orograph.  Cendres Volcan.







- Altitude de l'aérodrome : 46 ft
- Code IATA : SNN


EINN - Shannon

DERNIER METAR :
  • 192000Z 19010KT 9999 FEW020CB SCT036 BKN120 11/06 Q1008 NOSIG

METARs EXPIRÉS :
  • 191930Z 20009KT 9999 FEW020CB SCT110 11/06 Q1008 NOSIG
  • 191900Z 21010KT 9999 FEW020CB BKN120 12/06 Q1008 NOSIG
  • 191830Z 22016KT 9999 FEW020CB SCT036 BKN200 12/06 Q1008 NOSIG
  • 191800Z 23017KT 9999 FEW020CB SCT036 BKN160 13/06 Q1007 NOSIG
  • 191730Z 22014KT 9999 FEW018CB SCT036 BKN090 12/07 Q1007 NOSIG

TAF TAF EINN
Valide du 19 à 18h jusqu'au 20 à 18h UTC


191700Z 1918/2018 24015G27KT 9999 FEW020 BKN040
BECMG 1920/1923 20010KT
BECMG 2006/2008 16008KT
PROB30
TEMPO 2010/2014 -RA BKN012
BECMG 2012/2014 VRB03KT
BECMG 2014/2018 6000 -RA BKN012
BECMG 2016/2018 28006KT
TEMPO 2016/2018 4000 RA
Pas de NOTAMs connus pour ce terrain.
3 SIGMETs publiés pour la FIR Shannon (EISN) :
 
Turbulence forte
EISN SIGMET 13 VALID 191700/192000 EINN
EISN SHANNON FIR SEV TURB FCST N OF LINE N5330 W01500 - N5324 W01009 - N5345 W00530 SFC/FL060 MOV NNE AT 20KT WKN=
Annulation du SIGMET 11
EISN SIGMET 12 191627/192000 EINN
EISN SHANNON FIR CNL SIGMET 11 191700/192000=
SIGMET 11  ANNULÉ :
Turbulence forte
EISN SIGMET 11 VALID 191700/192000 EINN
EISN SHANNON FIR SEV TURB FCST SFC/FL060 MOV NE 20KT WKN=



MET'MAP, la Météo Aéronautique d'un coup d'oeil ! - Copyright ORBIFLY Décembre 2007 - Disclaimer

ORBIFLY MET'MAP TEAM :

Programmation & Développement : Alexandra Zaïnal
Conception & Développement : Baudouin d'Aumeries
Co-Programmation & Développement : Marc-Olivier Méhu
Soutien technique & logistique : Manuel Goepfert

Contact : metmap@orbifly.com




SOURCES & CREDITS :

   NOAA